Allegan, MI

4:13 PM EST on February 11, 2016 (GMT -0500)
Allegan | | Change Station
CLOSE
Current Station
Personal Weather Station
Location: Allegan, MI
Elevation: 633 ft
Nearby Weather Stations

Elev 633 ft 42.54 °N, 85.87 °W | Updated 5 minutes ago

Snow
Snow
19.6 °F
Feels Like 20 °F
N
0.0
Wind Variable Wind from WNW
Gusts 0.0 mph

Today
High -- | Low -- °F
--% Chance of Precip.
Yesterday
High -- | Low -- °F
Precip. -- in
Pressure 30.28 in
Visibility 10.0 miles
Clouds Overcast 3100 ft
Windchill 20 °F
Dew Point 14 °F
Humidity 79%
Rainfall 0.00 in
Snow Depth Not available.
7:46 AM 6:09 PM
Waxing Crescent, 14% visible
METAR KBIV 112053Z AUTO 30008KT 10SM OVC031 M06/M13 A3024 RMK AO2 SNE15 SLP254 P0000 60000 T10611133 50000
Pressure 30.28 in
Visibility 10.0 miles
Clouds Overcast 3100 ft
Windchill 20 °F
Dew Point 14 °F
Humidity 79%
Rainfall 0.00 in
Snow Depth Not available.
7:46 AM 6:09 PM
Waxing Crescent, 14% visible
METAR KBIV 112053Z AUTO 30008KT 10SM OVC031 M06/M13 A3024 RMK AO2 SNE15 SLP254 P0000 60000 T10611133 50000

10-Day Weather Forecast

Almanac

Astronomy

Feb. 11, 2016 Rise Set
Actual Time
Civil Twilight
Nautical Twilight
Astronomical Twilight
Moon
Length of Visible Light
Length of Day
Tomorrow will be .
, % of the Moon is Illuminated

Today's Extremes

State Highs State Lows

Community

WunderPhotos

Upload Photos

1,892,159 photos uploaded!

WunderBlog® & News

Nearby

Air Quality

  Air Quality AQ Index Pollutant
Not available.

Snow Depth

Station Depth Elevation

Earthquake Activity

City Distance Mag. Time & Date
Minimum magnitude displayed is 2.5.

Coastal Water Temperatures

Place Temperature

Stations

Nearby Weather Stations

Station Location Temp. Windchill Dew Point Humidity Wind Precip. Elev Updated Type
                   

Watches & Warnings

Winter Storm Warning
Issued: 1:41 PM EST Feb. 11, 2016 – National Weather Service

... Winter Storm Warning in effect from 7 am Friday to 4 PM EST
Saturday...

The National Weather Service in Grand Rapids has issued a Winter
Storm Warning... which is in effect from 7 am Friday to 4 PM EST
Saturday.

Hazardous weather...

* snow begins around the Friday morning commute.

* Wind and snow increase sharply later Friday into Saturday.

* Total snow 6 to 10 inches... well over a foot locally.

* Visibility sometimes down to a few car lengths.

* Dangerous wind chills beginning Friday evening.


Impacts...

* hazardous travel from mid morning Friday through Saturday
   evening.

* Accidents and slideoffs due to slippy Road and low
   visibilities.

* Closures and cancellations

* time to frostbite under 30 minutes starting Friday evening.

Precautionary/preparedness actions...

* the Michigan Department of Transportation reminds motorists
   to adjust speeds based on the conditions... and to take it
   slow in ice and snow.